Time;durP1;ratioP1;P1;durP2;ratioP2;P2;SDS_P1;SDS_P2;PMS_P1;PMS_P2;Temp;Humidity;BMP_temperature;BMP_pressure;BME280_temperature;BME280_humidity;BME280_pressure;Samples;Min_cycle;Max_cycle;Signal;HPM_P1;HPM_P2
2023/05/24 00:02:13;;;;;;;11.00;8.40;;;;;;;15.24;100.00;150551.56;2674940;30;143550;-88
2023/05/24 00:04:43;;;;;;;8.97;7.77;;;;;;;14.95;100.00;150478.00;2691512;30;141007;-88
2023/05/24 00:07:13;;;;;;;12.77;8.33;;;;;;;14.95;100.00;150478.00;2692804;30;144357;-87
2023/05/24 00:09:42;;;;;;;12.97;9.00;;;;;;;15.52;100.00;150622.66;2676014;30;140297;-87
2023/05/24 00:12:11;;;;;;;9.73;8.13;;;;;;;15.49;100.00;150616.31;2667417;30;144219;-85
2023/05/24 00:14:39;;;;;;;13.27;8.67;;;;;;;15.23;100.00;150549.03;2576336;30;141157;-82
2023/05/24 00:17:08;;;;;;;9.80;7.20;;;;;;;15.66;100.00;150658.19;2695927;30;141543;-84
2023/05/24 00:19:42;;;;;;;12.40;8.10;;;;;;;15.49;100.00;150615.03;2658406;30;141379;-85
2023/05/24 00:22:12;;;;;;;9.43;7.77;;;;;;;15.68;100.00;150663.28;2614063;30;144321;-85
2023/05/24 00:24:42;;;;;;;12.60;7.67;;;;;;;15.16;100.00;150531.28;2594507;30;140811;-86
2023/05/24 00:27:10;;;;;;;13.60;8.67;;;;;;;14.78;100.00;150434.84;2666157;30;143356;-87
2023/05/24 00:29:39;;;;;;;13.20;9.03;;;;;;;15.54;100.00;150629.03;2592178;30;141438;-87
2023/05/24 00:32:08;;;;;;;16.17;8.83;;;;;;;15.18;100.00;150536.31;2665791;30;142007;-87
2023/05/24 00:34:42;;;;;;;12.23;8.87;;;;;;;15.37;100.00;150584.63;2664675;30;140768;-88
2023/05/24 00:37:11;;;;;;;14.20;8.93;;;;;;;15.25;100.00;150555.34;2748794;30;142655;-88
2023/05/24 00:39:40;;;;;;;10.30;7.90;;;;;;;15.23;100.00;150549.03;2722863;30;141735;-87
2023/05/24 00:42:11;;;;;;;9.87;7.67;;;;;;;14.44;100.00;150349.94;2651327;30;145359;-86
2023/05/24 00:44:42;;;;;;;13.10;7.73;;;;;;;15.09;100.00;150513.50;2663903;30;140649;-87
2023/05/24 00:47:11;;;;;;;11.53;7.70;;;;;;;15.00;100.00;150490.66;2797704;30;142275;-86
2023/05/24 00:49:45;;;;;;;11.17;7.17;;;;;;;15.22;100.00;150546.50;2591589;30;140722;-85
2023/05/24 00:52:14;;;;;;;9.60;7.03;;;;;;;15.32;100.00;150571.88;2581811;30;141360;-86
2023/05/24 00:54:43;;;;;;;9.93;6.77;;;;;;;15.23;100.00;150549.03;2681290;30;140855;-86
2023/05/24 00:57:12;;;;;;;12.47;6.80;;;;;;;15.28;100.00;150561.75;2582389;30;141259;-85
2023/05/24 00:59:42;;;;;;;11.80;8.07;;;;;;;14.94;100.00;150475.44;2580861;30;140773;-84
2023/05/24 01:02:10;;;;;;;8.47;7.30;;;;;;;14.33;100.00;150320.78;2592017;30;142644;-84
2023/05/24 01:04:42;;;;;;;11.60;7.50;;;;;;;14.06;100.00;150252.28;2580177;30;141073;-84
2023/05/24 01:07:19;;;;;;;9.57;7.50;;;;;;;14.13;100.00;150270.00;2635114;30;141899;-85
2023/05/24 01:10:00;;;;;;;9.13;7.30;;;;;;;14.85;100.00;150453.88;2617794;30;140781;-82
2023/05/24 01:12:38;;;;;;;10.77;7.63;;;;;;;14.84;100.00;150451.38;2584670;30;141881;-86
2023/05/24 01:15:17;;;;;;;13.87;8.33;;;;;;;14.58;100.00;150384.16;2664038;30;140790;-86
2023/05/24 01:17:55;;;;;;;8.80;7.10;;;;;;;14.81;100.00;150443.75;2735910;30;142907;-84
2023/05/24 01:20:29;;;;;;;10.30;7.17;;;;;;;14.82;100.00;150445.03;2601351;30;140688;-87
2023/05/24 01:23:33;;;;;;;12.23;7.60;;;;;;;14.82;100.00;150445.03;2595061;30;141178;-86
2023/05/24 01:26:21;;;;;;;10.90;7.37;;;;;;;14.72;100.00;150420.94;2609903;30;140822;-86
2023/05/24 01:28:53;;;;;;;10.23;7.07;;;;;;;14.60;100.00;150390.50;2603884;30;141899;-86
2023/05/24 01:31:23;;;;;;;9.20;6.47;;;;;;;14.75;100.00;150427.25;2594005;30;140864;-85
2023/05/24 01:33:52;;;;;;;10.23;7.03;;;;;;;14.11;100.00;150264.91;2588765;30;141643;-84
2023/05/24 01:36:21;;;;;;;9.07;6.70;;;;;;;14.53;100.00;150371.47;2595012;30;140544;-85
2023/05/24 01:38:51;;;;;;;14.33;6.27;;;;;;;14.80;100.00;150439.94;2592916;30;142336;-84
2023/05/24 01:41:33;;;;;;;11.13;6.80;;;;;;;14.68;100.00;150409.50;2602132;30;140003;-86
2023/05/24 01:44:11;;;;;;;8.47;6.60;;;;;;;14.74;100.00;150424.72;2601607;30;140711;-85
2023/05/24 01:46:40;;;;;;;10.03;7.03;;;;;;;13.96;100.00;150226.94;2597660;30;140818;-85
2023/05/24 01:49:19;;;;;;;14.90;6.90;;;;;;;14.82;100.00;150445.03;2592580;30;142210;-86
2023/05/24 01:51:53;;;;;;;8.93;6.20;;;;;;;14.75;100.00;150427.25;2586810;30;140593;-83
2023/05/24 01:54:25;;;;;;;8.30;6.93;;;;;;;14.77;100.00;150432.34;2585784;30;145033;-85
2023/05/24 01:56:55;;;;;;;9.50;6.37;;;;;;;14.71;100.00;150417.13;2581475;30;140910;-85
2023/05/24 01:59:31;;;;;;;8.20;6.27;;;;;;;14.60;100.00;150389.19;2589871;30;142072;-85
2023/05/24 02:02:04;;;;;;;10.43;7.03;;;;;;;14.35;100.00;150327.09;2585125;30;140762;-86
2023/05/24 02:04:33;;;;;;;9.90;7.00;;;;;;;14.46;100.00;150353.72;2595942;30;145320;-85
2023/05/24 02:07:01;;;;;;;9.53;7.10;;;;;;;14.18;100.00;150283.94;2600376;30;140526;-85
2023/05/24 02:09:30;;;;;;;8.50;6.60;;;;;;;14.32;100.00;150318.22;2589832;30;142835;-88
2023/05/24 02:12:00;;;;;;;12.50;6.60;;;;;;;14.34;100.00;150323.31;2588241;30;140605;-85
2023/05/24 02:14:31;;;;;;;9.87;7.07;;;;;;;14.36;100.00;150328.38;2589606;30;141335;-85
2023/05/24 02:17:01;;;;;;;8.50;6.80;;;;;;;14.37;100.00;150330.91;2588175;30;140603;-85
2023/05/24 02:19:30;;;;;;;10.90;6.73;;;;;;;14.01;100.00;150239.59;2583051;30;142566;-85
2023/05/24 02:21:58;;;;;;;10.17;6.30;;;;;;;13.57;100.00;150130.63;2595861;30;140226;-86
2023/05/24 02:24:27;;;;;;;10.17;6.60;;;;;;;14.24;100.00;150299.19;2652544;30;141227;-85
2023/05/24 02:26:57;;;;;;;9.33;7.13;;;;;;;14.13;100.00;150270.00;2617035;30;140607;-88
2023/05/24 02:29:26;;;;;;;12.67;7.53;;;;;;;14.08;100.00;150257.31;2615247;30;142234;-86
2023/05/24 02:31:57;;;;;;;9.27;6.90;;;;;;;13.85;100.00;150201.56;2626473;30;140198;-80
2023/05/24 02:34:26;;;;;;;13.87;7.20;;;;;;;14.27;100.00;150305.56;2757729;30;141624;-81
2023/05/24 02:36:55;;;;;;;10.27;7.03;;;;;;;14.08;100.00;150257.31;2834734;30;139954;-80
2023/05/24 02:39:24;;;;;;;10.70;7.23;;;;;;;14.20;100.00;150287.72;2862690;30;141194;-81
2023/05/24 02:41:53;;;;;;;13.03;6.80;;;;;;;14.04;100.00;150247.19;2733421;30;141779;-81
2023/05/24 02:44:22;;;;;;;9.93;7.17;;;;;;;13.55;100.00;150124.28;2832531;30;140966;-86
2023/05/24 02:46:54;;;;;;;10.30;7.00;;;;;;;13.96;100.00;150226.94;2730359;30;140141;-87
2023/05/24 02:49:25;;;;;;;7.93;6.30;;;;;;;13.65;100.00;150150.91;2672996;30;140017;-88
2023/05/24 02:51:55;;;;;;;9.37;6.77;;;;;;;13.48;100.00;150107.81;2665395;30;140364;-87
2023/05/24 02:54:24;;;;;;;11.50;7.03;;;;;;;14.26;100.00;150303.00;2707360;30;140834;-86
2023/05/24 02:56:55;;;;;;;11.27;7.43;;;;;;;14.42;100.00;150343.59;2685653;30;140043;-86
2023/05/24 02:59:24;;;;;;;14.27;6.67;;;;;;;14.41;100.00;150341.03;2634578;30;141267;-86
2023/05/24 03:01:53;;;;;;;9.13;6.70;;;;;;;14.45;100.00;150351.22;2661254;30;140069;-87
2023/05/24 03:04:25;;;;;;;9.93;6.23;;;;;;;14.18;100.00;150282.69;2622325;30;142426;-84
2023/05/24 03:07:15;;;;;;;8.40;6.63;;;;;;;14.44;100.00;150348.66;2590892;30;140419;-83
2023/05/24 03:09:45;;;;;;;11.07;6.17;;;;;;;14.71;100.00;150417.13;2581356;30;145220;-84
2023/05/24 03:12:13;;;;;;;9.33;6.70;;;;;;;14.15;100.00;150276.31;2579748;30;141091;-84
2023/05/24 03:14:44;;;;;;;7.57;6.20;;;;;;;14.80;100.00;150441.22;2781055;30;141727;-86
2023/05/24 03:17:13;;;;;;;10.30;6.23;;;;;;;15.09;100.00;150513.50;2652899;30;140783;-87
2023/05/24 03:19:45;;;;;;;12.77;6.40;;;;;;;15.07;100.00;150508.44;2592812;30;143740;-86
2023/05/24 03:22:13;;;;;;;9.40;6.47;;;;;;;15.26;100.00;150557.94;2598991;30;140844;-86
2023/05/24 03:24:42;;;;;;;12.23;7.00;;;;;;;14.90;100.00;150465.31;2624729;30;141606;-87
2023/05/24 03:27:11;;;;;;;10.97;7.07;;;;;;;15.54;100.00;150629.03;2631077;30;140847;-86
2023/05/24 03:29:40;;;;;;;15.60;7.27;;;;;;;15.61;100.00;150645.50;2581053;30;141502;-84
2023/05/24 03:32:08;;;;;;;15.17;6.83;;;;;;;15.41;100.00;150594.75;2584171;30;140784;-84
2023/05/24 03:34:37;;;;;;;16.53;7.30;;;;;;;16.55;100.00;150884.22;2584207;30;142177;-83
2023/05/24 03:37:09;;;;;;;15.70;6.77;;;;;;;16.85;100.00;150960.41;2583652;30;140472;-84
2023/05/24 03:39:38;;;;;;;19.57;7.50;;;;;;;17.14;100.00;151034.06;2588447;30;142044;-86
2023/05/24 03:42:08;;;;;;;13.13;7.57;;;;;;;17.38;100.00;151095.06;2589739;30;140640;-84
2023/05/24 03:44:39;;;;;;;16.33;7.23;;;;;;;16.69;100.00;150919.78;2579703;30;141655;-87
2023/05/24 03:47:08;;;;;;;11.83;6.50;;;;;;;16.95;100.00;150985.81;2579240;30;141042;-84
2023/05/24 03:49:36;;;;;;;12.73;6.80;;;;;;;17.87;100.00;151218.38;2580878;30;144534;-84
2023/05/24 03:52:06;;;;;;;19.10;6.80;;;;;;;17.84;100.00;151209.50;2579120;30;140907;-85
2023/05/24 03:54:37;;;;;;;15.87;7.27;;;;;;;17.59;100.00;151147.22;2579979;30;144366;-84
2023/05/24 03:57:06;;;;;;;16.93;7.03;;;;;;;18.07;100.00;151267.97;2580936;30;140829;-85
2023/05/24 03:59:35;;;;;;;11.43;6.27;;;;;;;17.78;100.00;151194.25;2581370;30;145374;-84
2023/05/24 04:02:04;;;;;;;12.60;6.70;;;;;;;18.24;100.00;151311.22;2589304;30;141220;-87
2023/05/24 04:04:33;;;;;;;9.50;5.90;;;;;;;18.21;100.00;151303.59;2587257;30;146312;-85
2023/05/24 04:07:02;;;;;;;12.63;6.40;;;;;;;18.45;100.00;151364.69;2581825;30;140674;-84
2023/05/24 04:09:30;;;;;;;13.20;6.00;;;;;;;19.05;100.00;151518.59;2583025;30;142452;-83
2023/05/24 04:12:02;;;;;;;21.80;6.50;;;;;;;19.33;100.00;151588.59;2583162;30;140816;-83
2023/05/24 04:14:31;;;;;;;14.57;6.70;;;;;;;19.42;100.00;151611.50;2579130;30;141447;-83
2023/05/24 04:17:01;;;;;;;17.07;6.60;;;;;;;19.60;100.00;151657.31;2580436;30;140697;-84
2023/05/24 04:19:29;;;;;;;14.20;6.57;;;;;;;19.93;100.00;151741.34;2579581;30;142474;-83
2023/05/24 04:21:59;;;;;;;12.13;6.40;;;;;;;19.94;98.56;151743.88;2579574;30;140603;-83
2023/05/24 04:24:27;;;;;;;10.47;5.97;;;;;;;19.73;98.07;151689.16;2581070;30;142192;-83
2023/05/24 04:26:57;;;;;;;12.83;6.13;;;;;;;19.40;99.40;151607.69;2581834;30;140551;-84
2023/05/24 04:29:28;;;;;;;14.70;6.90;;;;;;;19.23;100.00;151563.09;2580557;30;145440;-84
2023/05/24 04:32:00;;;;;;;13.50;6.13;;;;;;;19.72;98.97;151687.88;2584324;30;140752;-87
2023/05/24 04:34:32;;;;;;;15.30;6.30;;;;;;;19.64;99.25;151667.50;2580527;30;141959;-84
2023/05/24 04:37:01;;;;;;;14.03;6.23;;;;;;;19.61;98.90;151659.84;2594712;30;140697;-86
2023/05/24 04:39:30;;;;;;;8.83;6.10;;;;;;;19.24;99.03;151565.63;2584299;30;141452;-84
2023/05/24 04:41:59;;;;;;;10.60;5.80;;;;;;;19.06;100.00;151519.88;2585708;30;140677;-85
2023/05/24 04:44:31;;;;;;;10.77;6.27;;;;;;;18.68;100.00;151423.16;2593758;30;145482;-87
2023/05/24 04:47:01;;;;;;;13.97;6.33;;;;;;;18.31;100.00;151329.00;2588435;30;140941;-86
2023/05/24 04:49:39;;;;;;;14.13;5.70;;;;;;;18.42;100.00;151357.06;2592487;30;142812;-88
2023/05/24 04:52:09;;;;;;;9.53;5.03;;;;;;;19.59;95.74;151654.81;2584096;30;140585;-84
2023/05/24 04:54:38;;;;;;;9.80;4.93;;;;;;;19.96;93.77;151749.00;2580482;30;142822;-85
2023/05/24 04:57:07;;;;;;;11.70;5.03;;;;;;;20.45;91.70;151872.53;2582583;30;140893;-81
2023/05/24 04:59:38;;;;;;;10.10;5.30;;;;;;;20.57;90.44;151903.13;2580258;30;142837;-81
2023/05/24 05:02:07;;;;;;;8.07;4.80;;;;;;;20.92;89.65;151993.56;2582912;30;140708;-79
2023/05/24 05:04:36;;;;;;;7.60;4.47;;;;;;;21.39;88.06;152112.13;2578857;30;142249;-79
2023/05/24 05:07:05;;;;;;;6.97;4.90;;;;;;;21.62;86.19;152169.50;2580627;30;140851;-82
2023/05/24 05:09:34;;;;;;;10.43;5.20;;;;;;;21.59;85.54;152163.09;2581447;30;142218;-80
2023/05/24 05:12:03;;;;;;;9.10;5.37;;;;;;;21.70;86.51;152189.84;2594418;30;140732;-84
2023/05/24 05:14:32;;;;;;;13.47;5.37;;;;;;;21.31;86.54;152093.00;2608404;30;143834;-81
2023/05/24 05:17:03;;;;;;;6.37;4.97;;;;;;;20.96;88.66;152003.84;2599626;30;140118;-83
2023/05/24 05:19:32;;;;;;;10.80;5.43;;;;;;;20.80;89.84;151962.97;2604133;30;142643;-82
2023/05/24 05:22:01;;;;;;;8.23;5.60;;;;;;;20.75;89.99;151950.28;2618873;30;140775;-82
2023/05/24 05:24:30;;;;;;;8.90;5.13;;;;;;;20.73;91.90;151945.16;2634161;30;141139;-82
2023/05/24 05:26:59;;;;;;;11.37;5.20;;;;;;;20.42;92.87;151866.19;2625543;30;140938;-82
2023/05/24 05:29:30;;;;;;;9.97;5.20;;;;;;;20.03;92.28;151766.81;2594558;30;142194;-85
2023/05/24 05:31:59;;;;;;;6.97;5.13;;;;;;;21.06;90.52;152029.31;2588120;30;140646;-86
2023/05/24 05:34:30;;;;;;;6.17;4.20;;;;;;;21.61;87.45;152168.19;2603133;30;141779;-86
2023/05/24 05:36:59;;;;;;;11.20;5.50;;;;;;;21.60;87.78;152164.38;2593685;30;140634;-88
2023/05/24 05:39:30;;;;;;;10.57;4.83;;;;;;;20.97;89.17;152006.38;2693118;30;142017;-88
2023/05/24 05:41:59;;;;;;;6.43;5.20;;;;;;;21.25;89.10;152076.41;2615942;30;140854;-85
2023/05/24 05:44:28;;;;;;;8.47;5.00;;;;;;;21.61;88.52;152168.19;2577737;30;141414;-86
2023/05/24 05:46:57;;;;;;;14.67;5.87;;;;;;;21.53;88.15;152146.53;2589047;30;140680;-86
2023/05/24 05:49:26;;;;;;;13.20;5.77;;;;;;;22.23;86.05;152325.09;2580324;30;142585;-82
2023/05/24 05:51:57;;;;;;;11.97;5.90;;;;;;;22.45;85.87;152381.19;2579708;30;140902;-85
2023/05/24 05:54:27;;;;;;;8.30;5.60;;;;;;;22.20;86.27;152318.69;2584230;30;141041;-84
2023/05/24 05:56:56;;;;;;;10.23;5.23;;;;;;;21.49;86.54;152136.31;2581263;30;140972;-86
2023/05/24 05:59:25;;;;;;;10.87;5.37;;;;;;;21.57;85.84;152156.72;2590386;30;141574;-85
2023/05/24 06:01:53;;;;;;;10.53;4.93;;;;;;;22.17;85.89;152309.78;2589584;30;140844;-79
2023/05/24 06:04:22;;;;;;;9.23;5.23;;;;;;;21.80;86.21;152215.44;2589253;30;143010;-82
2023/05/24 06:06:51;;;;;;;12.43;5.40;;;;;;;21.38;86.94;152108.31;2579579;30;140782;-81
2023/05/24 06:09:22;;;;;;;10.30;5.60;;;;;;;21.96;87.80;152256.22;2579960;30;141496;-82
2023/05/24 06:11:51;;;;;;;16.90;5.80;;;;;;;21.80;87.62;152215.44;2579628;30;140909;-77
2023/05/24 06:14:23;;;;;;;9.87;5.13;;;;;;;21.83;88.90;152224.31;2599697;30;142025;-87
2023/05/24 06:16:53;;;;;;;9.00;5.17;;;;;;;21.88;88.76;152235.81;2609713;30;141327;-84
2023/05/24 06:19:22;;;;;;;12.97;9.23;;;;;;;21.81;89.37;152219.25;2613060;30;142177;-86
2023/05/24 06:21:53;;;;;;;10.07;6.27;;;;;;;22.26;89.64;152332.75;2665885;30;140677;-84
2023/05/24 06:24:24;;;;;;;12.63;6.40;;;;;;;22.67;88.52;152437.34;2652710;30;142513;-88
2023/05/24 06:26:54;;;;;;;12.80;5.97;;;;;;;23.05;85.57;152534.28;2685652;30;140729;-85
2023/05/24 06:29:24;;;;;;;10.10;5.83;;;;;;;22.41;86.72;152370.97;2585614;30;143956;-85
2023/05/24 06:31:53;;;;;;;12.20;6.00;;;;;;;22.53;85.75;152401.63;2581488;30;141170;-82
2023/05/24 06:34:22;;;;;;;11.03;5.50;;;;;;;22.69;85.95;152442.47;2577922;30;142176;-82
2023/05/24 06:36:51;;;;;;;13.67;5.60;;;;;;;22.61;86.53;152422.03;2580310;30;140813;-82
2023/05/24 06:39:20;;;;;;;11.03;5.37;;;;;;;22.97;84.95;152515.16;2581396;30;141466;-85
2023/05/24 06:41:52;;;;;;;12.50;5.23;;;;;;;23.25;83.17;152585.41;2578992;30;140915;-82
2023/05/24 06:44:22;;;;;;;13.70;4.90;;;;;;;23.27;82.77;152590.53;2578417;30;141546;-81
2023/05/24 06:46:50;;;;;;;11.17;5.23;;;;;;;22.76;84.17;152461.63;2579057;30;140946;-81
2023/05/24 06:49:19;;;;;;;9.97;5.20;;;;;;;22.70;85.07;152446.31;2577792;30;142444;-83
2023/05/24 06:51:48;;;;;;;7.90;4.93;;;;;;;22.67;85.92;152437.34;2578261;30;140938;-81
2023/05/24 06:54:17;;;;;;;7.43;5.17;;;;;;;22.68;85.05;152439.91;2639669;30;141097;-81
2023/05/24 06:56:46;;;;;;;10.00;5.00;;;;;;;23.21;84.55;152575.16;2577405;30;140898;-83
2023/05/24 06:59:17;;;;;;;9.80;5.37;;;;;;;23.08;83.63;152543.25;2575662;30;143983;-85
2023/05/24 07:01:48;;;;;;;8.70;5.17;;;;;;;23.07;82.55;152539.41;2580287;30;141589;-83
2023/05/24 07:04:17;;;;;;;10.30;5.10;;;;;;;22.97;81.19;152513.91;2585930;30;142595;-81
2023/05/24 07:06:45;;;;;;;14.17;5.23;;;;;;;23.38;82.35;152618.56;2589343;30;140829;-83
2023/05/24 07:09:14;;;;;;;10.67;4.80;;;;;;;23.55;80.74;152662.00;2583561;30;142679;-82
2023/05/24 07:11:43;;;;;;;14.77;5.13;;;;;;;23.48;81.41;152644.09;2585014;30;141742;-81
2023/05/24 07:14:12;;;;;;;6.57;4.73;;;;;;;23.75;80.76;152711.78;2579630;30;143205;-82
2023/05/24 07:16:43;;;;;;;7.20;4.77;;;;;;;24.15;80.20;152815.22;2586577;30;141364;-81
2023/05/24 07:19:12;;;;;;;7.60;4.80;;;;;;;23.54;80.91;152659.41;2579453;30;142646;-84
2023/05/24 07:21:41;;;;;;;6.57;4.90;;;;;;;24.06;82.27;152791.00;2591431;30;141277;-84
2023/05/24 07:24:10;;;;;;;8.33;4.97;;;;;;;23.87;81.63;152743.69;2580152;30;141398;-84
2023/05/24 07:26:39;;;;;;;8.43;5.27;;;;;;;24.36;81.30;152868.88;2576035;30;140832;-84
2023/05/24 07:29:08;;;;;;;10.57;5.00;;;;;;;24.86;78.93;152996.63;2578738;30;143153;-83
2023/05/24 07:31:37;;;;;;;16.07;4.87;;;;;;;25.73;75.63;153217.78;2578175;30;140447;-84
2023/05/24 07:34:08;;;;;;;8.80;4.82;;;;;;;25.85;73.86;153247.16;2577100;30;142216;-83
2023/05/24 07:36:37;;;;;;;8.32;4.80;;;;;;;25.37;73.71;153124.50;2579789;30;140650;-84
2023/05/24 07:39:08;;;;;;;7.15;5.05;;;;;;;25.11;76.17;153057.97;2575908;30;142678;-85
2023/05/24 07:41:37;;;;;;;7.63;4.73;;;;;;;25.09;76.12;153052.88;2578242;30;140970;-83
2023/05/24 07:44:06;;;;;;;6.93;4.80;;;;;;;25.06;76.18;153045.22;2576587;30;141533;-85
2023/05/24 07:46:35;;;;;;;11.43;4.87;;;;;;;24.96;76.66;153022.22;2583432;30;140655;-84
2023/05/24 07:49:04;;;;;;;7.73;5.03;;;;;;;24.90;74.70;153006.88;2578279;30;142624;-85
2023/05/24 07:51:35;;;;;;;9.07;5.30;;;;;;;24.42;76.55;152884.19;2581212;30;140796;-86
2023/05/24 07:54:04;;;;;;;10.57;5.07;;;;;;;24.78;77.52;152974.91;2587871;30;142244;-87
2023/05/24 07:56:33;;;;;;;6.47;4.77;;;;;;;24.94;72.39;153017.09;2586266;30;140774;-86
2023/05/24 07:59:05;;;;;;;7.03;4.45;;;;;;;25.53;68.96;153165.38;2584526;30;142430;-83
2023/05/24 08:01:35;;;;;;;6.53;4.55;;;;;;;25.85;69.30;153247.16;2579911;30;140858;-86
2023/05/24 08:04:07;;;;;;;10.73;4.53;;;;;;;25.96;69.50;153275.31;2574494;30;141809;-83
2023/05/24 08:06:38;;;;;;;9.57;4.57;;;;;;;26.23;69.29;153344.41;2578414;30;141071;-83
2023/05/24 08:09:08;;;;;;;6.13;4.28;;;;;;;25.96;64.75;153275.31;2573712;30;142489;-82
2023/05/24 08:11:37;;;;;;;6.90;4.70;;;;;;;25.93;65.95;153267.63;2578123;30;140834;-81
2023/05/24 08:14:06;;;;;;;15.00;4.85;;;;;;;25.95;65.96;153272.78;2578732;30;141735;-85
2023/05/24 08:16:34;;;;;;;5.85;4.18;;;;;;;26.19;64.92;153334.16;2593461;30;140750;-84
2023/05/24 08:19:03;;;;;;;11.50;4.43;;;;;;;26.12;63.24;153316.25;2578775;30;145499;-84
2023/05/24 08:21:32;;;;;;;7.53;4.45;;;;;;;26.20;62.06;153336.75;2584670;30;141477;-87
2023/05/24 08:24:04;;;;;;;7.28;3.70;;;;;;;25.91;62.02;153262.50;2580236;30;141406;-84
2023/05/24 08:26:32;;;;;;;8.52;4.57;;;;;;;25.68;62.50;153204.97;2584297;30;141066;-86
2023/05/24 08:29:01;;;;;;;6.50;4.25;;;;;;;26.60;60.47;153439.03;2593045;30;142205;-87
2023/05/24 08:31:31;;;;;;;6.82;4.07;;;;;;;27.08;60.35;153561.88;2606094;30;141005;-85
2023/05/24 08:34:00;;;;;;;8.57;5.10;;;;;;;27.19;58.99;153590.03;2640652;30;141472;-84
2023/05/24 08:36:29;;;;;;;8.90;4.65;;;;;;;27.46;57.95;153659.19;2599864;30;140787;-85
2023/05/24 08:38:58;;;;;;;10.27;4.40;;;;;;;27.40;57.64;153643.84;2621698;30;143113;-86
2023/05/24 08:41:31;;;;;;;7.43;4.20;;;;;;;27.32;56.82;153623.34;2620226;30;141810;-88
2023/05/24 08:44:03;;;;;;;7.15;4.35;;;;;;;28.19;56.34;153846.16;2608857;30;141162;-83
2023/05/24 08:46:33;;;;;;;7.40;4.57;;;;;;;28.06;55.41;153812.81;2623671;30;141016;-82
2023/05/24 08:49:02;;;;;;;11.45;4.25;;;;;;;28.79;52.10;153997.31;2598715;30;142520;-79
2023/05/24 08:51:31;;;;;;;7.03;3.60;;;;;;;29.22;50.75;154108.81;2587081;30;140940;-84
2023/05/24 08:54:02;;;;;;;9.20;4.32;;;;;;;28.93;48.28;154033.19;2586143;30;144038;-81
2023/05/24 08:56:38;;;;;;;5.18;3.58;;;;;;;29.41;48.07;154157.50;2580424;30;141669;-84
2023/05/24 08:59:06;;;;;;;8.30;4.05;;;;;;;29.47;46.43;154171.56;2586832;30;142529;-84
2023/05/24 09:01:42;;;;;;;6.95;3.75;;;;;;;28.85;47.56;154013.97;2600456;30;140873;-82
2023/05/24 09:04:11;;;;;;;8.20;3.88;;;;;;;28.22;49.49;153853.84;2588110;30;141542;-82
2023/05/24 09:09:20;;;;;;;7.57;3.83;;;;;;;27.19;52.20;153590.03;2639962;30;140903;-84
2023/05/24 09:11:59;;;;;;;10.32;4.03;;;;;;;26.81;54.33;153492.81;2671064;30;140780;-81
2023/05/24 09:14:28;;;;;;;4.32;3.50;;;;;;;26.70;54.53;153464.66;2638001;30;142428;-82
2023/05/24 09:16:57;;;;;;;5.45;3.72;;;;;;;26.55;52.48;153426.25;2609758;30;141087;-82
2023/05/24 09:19:26;;;;;;;6.82;3.70;;;;;;;26.86;52.82;153504.34;2604329;30;143452;-84
2023/05/24 09:21:56;;;;;;;6.05;3.63;;;;;;;26.68;53.39;153459.53;2609873;30;141336;-80
2023/05/24 09:24:25;;;;;;;5.93;3.72;;;;;;;26.76;54.58;153480.03;2596588;30;142247;-85
2023/05/24 09:26:57;;;;;;;8.63;4.30;;;;;;;26.43;54.91;153395.53;2601593;30;140833;-88
2023/05/24 09:29:26;;;;;;;7.50;4.43;;;;;;;26.85;55.42;153503.03;2605582;30;144617;-81
2023/05/24 09:31:58;;;;;;;6.45;4.25;;;;;;;27.16;52.37;153582.38;2599010;30;140938;-82
2023/05/24 09:34:27;;;;;;;9.13;4.07;;;;;;;27.54;49.65;153679.66;2585513;30;141215;-86
2023/05/24 09:36:56;;;;;;;10.32;4.72;;;;;;;27.20;50.82;153592.59;2600298;30;141105;-81
2023/05/24 09:39:25;;;;;;;7.10;4.28;;;;;;;27.49;50.47;153666.88;2601482;30;141135;-83
2023/05/24 09:41:59;;;;;;;5.97;4.15;;;;;;;27.89;51.12;153769.31;2585013;30;141070;-81
2023/05/24 09:44:28;;;;;;;7.10;3.72;;;;;;;27.69;50.38;153716.81;2595000;30;141350;-83
2023/05/24 09:47:05;;;;;;;7.10;4.15;;;;;;;28.42;50.01;153905.03;2585684;30;141043;-85
2023/05/24 09:49:34;;;;;;;15.20;4.05;;;;;;;28.63;47.88;153956.34;2619428;30;145291;-85
2023/05/24 09:52:05;;;;;;;9.73;3.92;;;;;;;28.47;48.96;153916.59;2862256;30;140447;-88
2023/05/24 09:54:34;;;;;;;7.90;3.60;;;;;;;27.50;49.50;153668.19;2595193;30;142616;-84
2023/05/24 09:57:07;;;;;;;6.18;3.83;;;;;;;27.35;48.71;153629.78;2869475;30;141863;-85
2023/05/24 09:59:36;;;;;;;10.68;4.18;;;;;;;27.67;46.42;153712.97;2653255;30;142489;-84
2023/05/24 10:02:11;;;;;;;7.18;4.28;;;;;;;27.89;43.96;153769.31;2591944;30;140874;-82
2023/05/24 10:04:40;;;;;;;5.57;4.18;;;;;;;27.23;45.30;153600.25;2631264;30;142538;-81
2023/05/24 10:07:11;;;;;;;6.80;4.05;;;;;;;27.37;45.93;153636.16;2666299;30;141222;-84
2023/05/24 10:09:40;;;;;;;6.78;4.18;;;;;;;27.20;44.93;153592.59;2631882;30;143040;-84
2023/05/24 10:12:11;;;;;;;9.73;5.00;;;;;;;27.69;45.81;153718.06;2625315;30;140721;-85
2023/05/24 10:14:41;;;;;;;13.95;4.57;;;;;;;27.19;46.53;153590.03;2700178;30;141224;-83
2023/05/24 10:17:10;;;;;;;5.70;3.95;;;;;;;27.48;45.38;153664.34;2695059;30;140924;-82
2023/05/24 10:19:40;;;;;;;9.40;4.25;;;;;;;27.76;44.88;153736.00;2697296;30;143974;-87
2023/05/24 10:24:58;;;;;;;9.98;4.13;;;;;;;27.67;45.16;153712.97;2770837;30;141015;-86
2023/05/24 10:27:33;;;;;;;10.35;4.57;;;;;;;27.90;45.25;153771.88;2732402;30;141220;-82
2023/05/24 10:30:12;;;;;;;7.82;5.20;;;;;;;27.87;45.35;153764.19;2855761;30;141899;-86
2023/05/24 10:32:42;;;;;;;11.18;4.80;;;;;;;27.41;44.98;153646.38;2792991;30;141592;-87
2023/05/24 10:35:13;;;;;;;9.73;4.68;;;;;;;27.31;47.17;153620.81;2676933;30;144914;-88
2023/05/24 10:37:42;;;;;;;6.30;4.78;;;;;;;27.10;48.45;153567.00;2709912;30;141145;-86
2023/05/24 10:40:19;;;;;;;7.90;4.40;;;;;;;26.56;49.13;153428.84;2588251;30;142390;-86
2023/05/24 10:42:51;;;;;;;10.40;4.95;;;;;;;27.30;48.78;153618.25;2621729;30;140673;-85
2023/05/24 10:45:35;;;;;;;6.75;4.63;;;;;;;27.34;47.05;153628.50;2738472;30;141401;-85
2023/05/24 10:48:11;;;;;;;9.63;8.13;;;;;;;27.30;49.51;153616.97;2627405;30;140728;-86
2023/05/24 10:50:39;;;;;;;6.63;3.92;;;;;;;27.52;47.68;153674.56;2586527;30;142727;-84
2023/05/24 10:53:15;;;;;;;7.53;4.15;;;;;;;26.96;49.19;153531.22;2589619;30;141029;-86
2023/05/24 10:55:55;;;;;;;11.20;4.30;;;;;;;27.02;48.95;153546.56;2590458;30;141796;-84
2023/05/24 10:58:30;;;;;;;9.23;4.38;;;;;;;26.63;49.45;153448.03;2594762;30;140548;-84
2023/05/24 11:00:59;;;;;;;11.27;4.85;;;;;;;26.48;51.02;153408.34;2702464;30;142041;-82
2023/05/24 11:03:35;;;;;;;12.80;4.38;;;;;;;27.01;50.97;153543.97;2795800;30;140705;-86
2023/05/24 11:06:04;;;;;;;10.88;4.72;;;;;;;27.43;49.75;153651.53;2737264;30;142098;-79
2023/05/24 11:08:35;;;;;;;13.85;4.97;;;;;;;28.23;47.74;153856.38;2666941;30;139461;-82
2023/05/24 11:11:06;;;;;;;9.95;5.38;;;;;;;28.53;47.09;153933.28;2762268;30;142250;-84
2023/05/24 11:13:38;;;;;;;8.40;4.40;;;;;;;28.28;46.57;153869.19;2671955;30;140704;-79
2023/05/24 11:16:35;;;;;;;6.47;4.03;;;;;;;28.59;43.63;153948.66;2682654;30;141117;-86
2023/05/24 11:19:14;;;;;;;11.55;4.20;;;;;;;28.17;44.75;153841.00;2644021;30;140262;-85
2023/05/24 11:21:45;;;;;;;10.25;4.18;;;;;;;27.72;44.98;153725.72;2615725;30;142522;-85
2023/05/24 11:24:20;;;;;;;9.82;3.53;;;;;;;27.91;41.65;153773.16;2790577;30;140313;-79
2023/05/24 11:26:50;;;;;;;7.38;3.83;;;;;;;27.72;39.42;153725.72;2693458;30;140693;-86
2023/05/24 11:29:22;;;;;;;8.10;3.72;;;;;;;27.28;38.25;153613.13;2590307;30;140676;-85
2023/05/24 11:32:03;;;;;;;5.35;3.63;;;;;;;27.23;39.42;153600.25;2671940;30;142162;-87